sensor_id;sensor_type;location;lat;lon;timestamp;P1;durP1;ratioP1;P2;durP2;ratioP2
14611;SDS011;7392;52.078;11.650;2022-12-07T00:01:17;7.23;;;5.93;;
14611;SDS011;7392;52.078;11.650;2022-12-07T00:03:46;7.87;;;6.23;;
14611;SDS011;7392;52.078;11.650;2022-12-07T00:06:16;8.13;;;6.30;;
14611;SDS011;7392;52.078;11.650;2022-12-07T00:08:45;7.43;;;6.13;;
14611;SDS011;7392;52.078;11.650;2022-12-07T00:11:15;6.80;;;5.47;;
14611;SDS011;7392;52.078;11.650;2022-12-07T00:13:45;6.73;;;5.47;;
14611;SDS011;7392;52.078;11.650;2022-12-07T00:16:14;7.57;;;5.93;;
14611;SDS011;7392;52.078;11.650;2022-12-07T00:18:43;7.47;;;6.10;;
14611;SDS011;7392;52.078;11.650;2022-12-07T00:21:12;8.50;;;6.23;;
14611;SDS011;7392;52.078;11.650;2022-12-07T00:23:42;9.50;;;7.67;;
14611;SDS011;7392;52.078;11.650;2022-12-07T00:26:11;8.17;;;6.40;;
14611;SDS011;7392;52.078;11.650;2022-12-07T00:28:42;8.37;;;6.67;;
14611;SDS011;7392;52.078;11.650;2022-12-07T00:31:12;7.37;;;6.23;;
14611;SDS011;7392;52.078;11.650;2022-12-07T00:33:42;8.57;;;6.83;;
14611;SDS011;7392;52.078;11.650;2022-12-07T00:36:10;9.83;;;7.77;;
14611;SDS011;7392;52.078;11.650;2022-12-07T00:38:40;11.93;;;7.70;;
14611;SDS011;7392;52.078;11.650;2022-12-07T00:41:09;12.47;;;9.67;;
14611;SDS011;7392;52.078;11.650;2022-12-07T00:43:38;11.90;;;9.27;;
14611;SDS011;7392;52.078;11.650;2022-12-07T00:46:08;11.37;;;8.70;;
14611;SDS011;7392;52.078;11.650;2022-12-07T00:48:36;11.50;;;8.80;;
14611;SDS011;7392;52.078;11.650;2022-12-07T00:51:04;10.20;;;8.20;;
14611;SDS011;7392;52.078;11.650;2022-12-07T00:53:33;10.57;;;8.13;;
14611;SDS011;7392;52.078;11.650;2022-12-07T00:56:07;10.87;;;8.50;;
14611;SDS011;7392;52.078;11.650;2022-12-07T00:58:35;12.47;;;9.87;;
14611;SDS011;7392;52.078;11.650;2022-12-07T01:01:04;13.17;;;10.23;;
14611;SDS011;7392;52.078;11.650;2022-12-07T01:03:35;15.57;;;11.00;;
14611;SDS011;7392;52.078;11.650;2022-12-07T01:06:04;14.90;;;11.33;;
14611;SDS011;7392;52.078;11.650;2022-12-07T01:08:33;13.17;;;10.17;;
14611;SDS011;7392;52.078;11.650;2022-12-07T01:11:02;14.77;;;11.53;;
14611;SDS011;7392;52.078;11.650;2022-12-07T01:13:31;16.40;;;12.57;;
14611;SDS011;7392;52.078;11.650;2022-12-07T01:16:01;15.77;;;11.37;;
14611;SDS011;7392;52.078;11.650;2022-12-07T01:18:30;14.13;;;10.60;;
14611;SDS011;7392;52.078;11.650;2022-12-07T01:21:02;15.63;;;11.77;;
14611;SDS011;7392;52.078;11.650;2022-12-07T01:23:32;16.67;;;13.33;;
14611;SDS011;7392;52.078;11.650;2022-12-07T01:26:01;17.33;;;12.33;;
14611;SDS011;7392;52.078;11.650;2022-12-07T01:28:31;16.70;;;13.03;;
14611;SDS011;7392;52.078;11.650;2022-12-07T01:31:00;17.53;;;12.33;;
14611;SDS011;7392;52.078;11.650;2022-12-07T01:33:30;15.37;;;12.27;;
14611;SDS011;7392;52.078;11.650;2022-12-07T01:36:01;15.57;;;12.60;;
14611;SDS011;7392;52.078;11.650;2022-12-07T01:38:30;14.63;;;11.80;;
14611;SDS011;7392;52.078;11.650;2022-12-07T01:40:59;14.33;;;10.40;;
14611;SDS011;7392;52.078;11.650;2022-12-07T01:43:28;13.73;;;10.67;;
14611;SDS011;7392;52.078;11.650;2022-12-07T01:45:58;14.53;;;11.23;;
14611;SDS011;7392;52.078;11.650;2022-12-07T01:48:27;13.50;;;11.13;;
14611;SDS011;7392;52.078;11.650;2022-12-07T01:51:00;15.47;;;12.10;;
14611;SDS011;7392;52.078;11.650;2022-12-07T01:53:33;14.80;;;11.80;;
14611;SDS011;7392;52.078;11.650;2022-12-07T01:56:03;13.83;;;10.97;;
14611;SDS011;7392;52.078;11.650;2022-12-07T01:58:33;12.93;;;10.50;;
14611;SDS011;7392;52.078;11.650;2022-12-07T02:01:01;14.83;;;11.03;;
14611;SDS011;7392;52.078;11.650;2022-12-07T02:03:30;11.77;;;9.30;;
14611;SDS011;7392;52.078;11.650;2022-12-07T02:06:03;11.63;;;9.20;;
14611;SDS011;7392;52.078;11.650;2022-12-07T02:08:32;11.50;;;9.43;;
14611;SDS011;7392;52.078;11.650;2022-12-07T02:11:00;11.73;;;9.50;;
14611;SDS011;7392;52.078;11.650;2022-12-07T02:13:31;13.40;;;10.57;;
14611;SDS011;7392;52.078;11.650;2022-12-07T02:16:06;12.93;;;10.43;;
14611;SDS011;7392;52.078;11.650;2022-12-07T02:18:44;12.97;;;10.63;;
14611;SDS011;7392;52.078;11.650;2022-12-07T02:21:26;12.73;;;10.00;;
14611;SDS011;7392;52.078;11.650;2022-12-07T02:29:58;11.43;;;9.77;;
14611;SDS011;7392;52.078;11.650;2022-12-07T02:32:37;12.03;;;10.10;;
14611;SDS011;7392;52.078;11.650;2022-12-07T02:35:11;11.63;;;9.10;;
14611;SDS011;7392;52.078;11.650;2022-12-07T02:37:43;10.73;;;8.90;;
14611;SDS011;7392;52.078;11.650;2022-12-07T02:40:22;9.97;;;7.73;;
14611;SDS011;7392;52.078;11.650;2022-12-07T02:42:55;9.63;;;8.33;;
14611;SDS011;7392;52.078;11.650;2022-12-07T02:45:30;10.17;;;8.80;;
14611;SDS011;7392;52.078;11.650;2022-12-07T02:48:00;10.80;;;9.33;;
14611;SDS011;7392;52.078;11.650;2022-12-07T02:50:31;10.60;;;8.30;;
14611;SDS011;7392;52.078;11.650;2022-12-07T02:52:59;10.50;;;8.50;;
14611;SDS011;7392;52.078;11.650;2022-12-07T02:55:28;11.43;;;9.00;;
14611;SDS011;7392;52.078;11.650;2022-12-07T02:58:05;10.17;;;8.97;;
14611;SDS011;7392;52.078;11.650;2022-12-07T03:00:45;9.87;;;7.97;;
14611;SDS011;7392;52.078;11.650;2022-12-07T03:03:19;10.57;;;8.57;;
14611;SDS011;7392;52.078;11.650;2022-12-07T03:05:57;10.13;;;8.10;;
14611;SDS011;7392;52.078;11.650;2022-12-07T03:08:38;10.73;;;8.33;;
14611;SDS011;7392;52.078;11.650;2022-12-07T03:11:12;11.00;;;8.70;;
14611;SDS011;7392;52.078;11.650;2022-12-07T03:13:48;12.40;;;9.33;;
14611;SDS011;7392;52.078;11.650;2022-12-07T03:16:23;10.60;;;8.27;;
14611;SDS011;7392;52.078;11.650;2022-12-07T03:18:55;10.47;;;8.90;;
14611;SDS011;7392;52.078;11.650;2022-12-07T03:21:26;11.43;;;8.53;;
14611;SDS011;7392;52.078;11.650;2022-12-07T03:23:59;12.83;;;9.50;;
14611;SDS011;7392;52.078;11.650;2022-12-07T03:26:31;11.33;;;9.93;;
14611;SDS011;7392;52.078;11.650;2022-12-07T03:29:02;13.53;;;9.70;;
14611;SDS011;7392;52.078;11.650;2022-12-07T03:31:36;11.83;;;9.77;;
14611;SDS011;7392;52.078;11.650;2022-12-07T03:34:08;13.03;;;9.83;;
14611;SDS011;7392;52.078;11.650;2022-12-07T03:36:39;13.20;;;9.87;;
14611;SDS011;7392;52.078;11.650;2022-12-07T03:39:15;11.63;;;8.87;;
14611;SDS011;7392;52.078;11.650;2022-12-07T03:41:50;11.87;;;9.00;;
14611;SDS011;7392;52.078;11.650;2022-12-07T03:44:18;11.50;;;9.13;;
14611;SDS011;7392;52.078;11.650;2022-12-07T03:46:50;10.10;;;8.53;;
14611;SDS011;7392;52.078;11.650;2022-12-07T03:49:27;11.83;;;9.03;;
14611;SDS011;7392;52.078;11.650;2022-12-07T03:52:00;11.23;;;9.00;;
14611;SDS011;7392;52.078;11.650;2022-12-07T03:54:36;12.33;;;9.73;;
14611;SDS011;7392;52.078;11.650;2022-12-07T03:57:08;12.33;;;9.93;;
14611;SDS011;7392;52.078;11.650;2022-12-07T03:59:38;12.70;;;10.07;;
14611;SDS011;7392;52.078;11.650;2022-12-07T04:02:10;13.77;;;10.60;;
14611;SDS011;7392;52.078;11.650;2022-12-07T04:04:41;14.43;;;11.13;;
14611;SDS011;7392;52.078;11.650;2022-12-07T04:07:10;15.67;;;12.43;;
14611;SDS011;7392;52.078;11.650;2022-12-07T04:09:39;13.50;;;11.20;;
14611;SDS011;7392;52.078;11.650;2022-12-07T04:12:07;14.23;;;12.07;;
14611;SDS011;7392;52.078;11.650;2022-12-07T04:14:35;15.00;;;12.17;;
14611;SDS011;7392;52.078;11.650;2022-12-07T04:17:02;15.53;;;12.10;;
14611;SDS011;7392;52.078;11.650;2022-12-07T04:19:32;13.90;;;11.80;;
14611;SDS011;7392;52.078;11.650;2022-12-07T04:22:01;15.33;;;12.13;;
14611;SDS011;7392;52.078;11.650;2022-12-07T04:24:31;15.70;;;12.87;;
14611;SDS011;7392;52.078;11.650;2022-12-07T04:26:59;14.83;;;12.37;;
14611;SDS011;7392;52.078;11.650;2022-12-07T04:29:27;16.03;;;14.30;;
14611;SDS011;7392;52.078;11.650;2022-12-07T04:31:55;14.57;;;12.63;;
14611;SDS011;7392;52.078;11.650;2022-12-07T04:34:23;16.10;;;13.40;;
14611;SDS011;7392;52.078;11.650;2022-12-07T04:36:52;18.90;;;14.87;;
14611;SDS011;7392;52.078;11.650;2022-12-07T04:39:21;20.90;;;15.50;;
14611;SDS011;7392;52.078;11.650;2022-12-07T04:41:50;16.77;;;14.10;;
14611;SDS011;7392;52.078;11.650;2022-12-07T04:44:18;16.57;;;14.23;;
14611;SDS011;7392;52.078;11.650;2022-12-07T04:46:47;16.70;;;14.57;;
14611;SDS011;7392;52.078;11.650;2022-12-07T04:49:15;15.70;;;13.47;;
14611;SDS011;7392;52.078;11.650;2022-12-07T04:51:44;17.53;;;13.63;;
14611;SDS011;7392;52.078;11.650;2022-12-07T04:54:14;16.33;;;13.30;;
14611;SDS011;7392;52.078;11.650;2022-12-07T04:56:43;15.60;;;13.77;;
14611;SDS011;7392;52.078;11.650;2022-12-07T04:59:11;18.50;;;14.63;;
14611;SDS011;7392;52.078;11.650;2022-12-07T05:01:40;17.80;;;15.37;;
14611;SDS011;7392;52.078;11.650;2022-12-07T05:04:08;16.57;;;14.77;;
14611;SDS011;7392;52.078;11.650;2022-12-07T05:06:37;17.57;;;14.77;;
14611;SDS011;7392;52.078;11.650;2022-12-07T05:09:05;18.93;;;15.37;;
14611;SDS011;7392;52.078;11.650;2022-12-07T05:11:34;17.70;;;15.57;;
14611;SDS011;7392;52.078;11.650;2022-12-07T05:14:09;19.30;;;15.47;;
14611;SDS011;7392;52.078;11.650;2022-12-07T05:16:39;18.70;;;15.10;;
14611;SDS011;7392;52.078;11.650;2022-12-07T05:19:08;18.73;;;16.03;;
14611;SDS011;7392;52.078;11.650;2022-12-07T05:21:37;16.97;;;14.87;;
14611;SDS011;7392;52.078;11.650;2022-12-07T05:24:06;17.50;;;14.90;;
14611;SDS011;7392;52.078;11.650;2022-12-07T05:26:37;19.73;;;15.73;;
14611;SDS011;7392;52.078;11.650;2022-12-07T05:29:05;24.07;;;17.13;;
14611;SDS011;7392;52.078;11.650;2022-12-07T05:31:32;18.40;;;16.03;;
14611;SDS011;7392;52.078;11.650;2022-12-07T05:34:00;18.83;;;16.00;;
14611;SDS011;7392;52.078;11.650;2022-12-07T05:36:28;17.67;;;15.77;;
14611;SDS011;7392;52.078;11.650;2022-12-07T05:38:58;15.97;;;14.27;;
14611;SDS011;7392;52.078;11.650;2022-12-07T05:41:26;16.87;;;14.17;;
14611;SDS011;7392;52.078;11.650;2022-12-07T05:44:13;16.13;;;14.37;;
14611;SDS011;7392;52.078;11.650;2022-12-07T05:46:41;17.80;;;15.43;;
14611;SDS011;7392;52.078;11.650;2022-12-07T05:49:09;18.67;;;15.57;;
14611;SDS011;7392;52.078;11.650;2022-12-07T05:51:36;16.63;;;14.17;;
14611;SDS011;7392;52.078;11.650;2022-12-07T05:54:04;16.10;;;14.37;;
14611;SDS011;7392;52.078;11.650;2022-12-07T05:56:32;14.90;;;13.30;;
14611;SDS011;7392;52.078;11.650;2022-12-07T05:59:00;16.57;;;14.17;;
14611;SDS011;7392;52.078;11.650;2022-12-07T06:01:46;17.63;;;14.73;;
14611;SDS011;7392;52.078;11.650;2022-12-07T06:04:14;17.73;;;13.87;;
14611;SDS011;7392;52.078;11.650;2022-12-07T06:06:42;16.60;;;14.57;;
14611;SDS011;7392;52.078;11.650;2022-12-07T06:09:10;16.50;;;14.30;;
14611;SDS011;7392;52.078;11.650;2022-12-07T06:11:39;18.00;;;14.33;;
14611;SDS011;7392;52.078;11.650;2022-12-07T06:14:24;16.53;;;14.23;;
14611;SDS011;7392;52.078;11.650;2022-12-07T06:16:54;17.17;;;15.30;;
14611;SDS011;7392;52.078;11.650;2022-12-07T06:19:22;17.17;;;14.60;;
14611;SDS011;7392;52.078;11.650;2022-12-07T06:21:50;18.00;;;14.37;;
14611;SDS011;7392;52.078;11.650;2022-12-07T06:24:18;16.30;;;13.07;;
14611;SDS011;7392;52.078;11.650;2022-12-07T06:26:46;15.07;;;13.20;;
14611;SDS011;7392;52.078;11.650;2022-12-07T06:29:14;16.97;;;13.57;;
14611;SDS011;7392;52.078;11.650;2022-12-07T06:31:42;16.77;;;14.60;;
14611;SDS011;7392;52.078;11.650;2022-12-07T06:34:13;16.87;;;13.97;;
14611;SDS011;7392;52.078;11.650;2022-12-07T06:36:43;16.10;;;13.83;;
14611;SDS011;7392;52.078;11.650;2022-12-07T06:39:11;15.60;;;13.33;;
14611;SDS011;7392;52.078;11.650;2022-12-07T06:41:39;17.10;;;12.60;;
14611;SDS011;7392;52.078;11.650;2022-12-07T06:44:07;20.10;;;14.40;;
14611;SDS011;7392;52.078;11.650;2022-12-07T06:46:35;14.13;;;11.77;;
14611;SDS011;7392;52.078;11.650;2022-12-07T06:49:03;14.03;;;12.43;;
14611;SDS011;7392;52.078;11.650;2022-12-07T06:51:33;14.53;;;12.20;;
14611;SDS011;7392;52.078;11.650;2022-12-07T06:54:02;15.37;;;12.00;;
14611;SDS011;7392;52.078;11.650;2022-12-07T06:56:30;14.33;;;11.53;;
14611;SDS011;7392;52.078;11.650;2022-12-07T06:58:58;14.30;;;12.10;;
14611;SDS011;7392;52.078;11.650;2022-12-07T07:01:26;11.60;;;10.10;;
14611;SDS011;7392;52.078;11.650;2022-12-07T07:03:54;12.77;;;10.87;;
14611;SDS011;7392;52.078;11.650;2022-12-07T07:06:22;13.90;;;10.37;;
14611;SDS011;7392;52.078;11.650;2022-12-07T07:08:51;14.50;;;10.70;;
14611;SDS011;7392;52.078;11.650;2022-12-07T07:11:19;13.63;;;10.37;;
14611;SDS011;7392;52.078;11.650;2022-12-07T07:13:47;11.63;;;10.23;;
14611;SDS011;7392;52.078;11.650;2022-12-07T07:16:14;11.87;;;10.00;;
14611;SDS011;7392;52.078;11.650;2022-12-07T07:18:42;13.33;;;9.90;;
14611;SDS011;7392;52.078;11.650;2022-12-07T07:21:10;9.57;;;8.63;;
14611;SDS011;7392;52.078;11.650;2022-12-07T07:23:38;12.27;;;8.73;;
14611;SDS011;7392;52.078;11.650;2022-12-07T07:26:07;11.03;;;8.70;;
14611;SDS011;7392;52.078;11.650;2022-12-07T07:28:35;11.47;;;8.63;;
14611;SDS011;7392;52.078;11.650;2022-12-07T07:31:03;9.67;;;8.30;;
14611;SDS011;7392;52.078;11.650;2022-12-07T07:33:31;10.23;;;7.30;;
14611;SDS011;7392;52.078;11.650;2022-12-07T07:35:58;11.03;;;8.70;;
14611;SDS011;7392;52.078;11.650;2022-12-07T07:38:26;11.03;;;8.83;;
14611;SDS011;7392;52.078;11.650;2022-12-07T07:40:54;9.63;;;7.17;;
14611;SDS011;7392;52.078;11.650;2022-12-07T07:43:23;9.23;;;8.07;;
14611;SDS011;7392;52.078;11.650;2022-12-07T07:45:50;9.70;;;8.10;;
14611;SDS011;7392;52.078;11.650;2022-12-07T07:48:19;10.93;;;8.60;;
14611;SDS011;7392;52.078;11.650;2022-12-07T07:50:48;10.07;;;7.60;;
14611;SDS011;7392;52.078;11.650;2022-12-07T07:53:16;13.17;;;8.67;;
14611;SDS011;7392;52.078;11.650;2022-12-07T07:55:49;10.37;;;7.93;;
14611;SDS011;7392;52.078;11.650;2022-12-07T07:58:18;9.10;;;7.70;;
14611;SDS011;7392;52.078;11.650;2022-12-07T08:00:47;11.10;;;8.63;;
14611;SDS011;7392;52.078;11.650;2022-12-07T08:03:14;8.93;;;7.70;;
14611;SDS011;7392;52.078;11.650;2022-12-07T08:05:43;12.37;;;8.20;;
14611;SDS011;7392;52.078;11.650;2022-12-07T08:08:10;10.40;;;8.10;;
14611;SDS011;7392;52.078;11.650;2022-12-07T08:10:38;10.83;;;8.77;;
14611;SDS011;7392;52.078;11.650;2022-12-07T08:13:06;11.30;;;8.20;;
14611;SDS011;7392;52.078;11.650;2022-12-07T08:15:41;10.03;;;8.73;;
14611;SDS011;7392;52.078;11.650;2022-12-07T08:18:12;8.87;;;7.87;;
14611;SDS011;7392;52.078;11.650;2022-12-07T08:20:41;11.53;;;8.40;;
14611;SDS011;7392;52.078;11.650;2022-12-07T08:23:09;8.87;;;7.97;;
14611;SDS011;7392;52.078;11.650;2022-12-07T08:25:38;10.63;;;8.23;;
14611;SDS011;7392;52.078;11.650;2022-12-07T08:28:06;11.37;;;8.80;;
14611;SDS011;7392;52.078;11.650;2022-12-07T08:30:34;11.80;;;9.63;;
14611;SDS011;7392;52.078;11.650;2022-12-07T08:33:02;11.63;;;9.00;;
14611;SDS011;7392;52.078;11.650;2022-12-07T08:35:33;11.90;;;9.97;;
14611;SDS011;7392;52.078;11.650;2022-12-07T08:38:01;13.53;;;9.23;;
14611;SDS011;7392;52.078;11.650;2022-12-07T08:40:29;10.53;;;8.87;;
14611;SDS011;7392;52.078;11.650;2022-12-07T08:42:57;10.07;;;8.33;;
14611;SDS011;7392;52.078;11.650;2022-12-07T08:45:25;10.90;;;8.40;;
14611;SDS011;7392;52.078;11.650;2022-12-07T08:47:54;12.97;;;7.83;;
14611;SDS011;7392;52.078;11.650;2022-12-07T08:50:28;10.07;;;7.50;;
14611;SDS011;7392;52.078;11.650;2022-12-07T08:52:57;8.67;;;7.20;;
14611;SDS011;7392;52.078;11.650;2022-12-07T08:55:26;7.50;;;5.83;;
14611;SDS011;7392;52.078;11.650;2022-12-07T08:57:56;7.07;;;4.80;;
14611;SDS011;7392;52.078;11.650;2022-12-07T09:00:25;5.27;;;4.47;;
14611;SDS011;7392;52.078;11.650;2022-12-07T09:02:53;7.57;;;4.00;;
14611;SDS011;7392;52.078;11.650;2022-12-07T09:05:21;4.23;;;3.80;;
14611;SDS011;7392;52.078;11.650;2022-12-07T09:07:49;4.27;;;3.63;;
14611;SDS011;7392;52.078;11.650;2022-12-07T09:10:21;5.47;;;3.80;;
14611;SDS011;7392;52.078;11.650;2022-12-07T09:12:49;3.60;;;3.07;;
14611;SDS011;7392;52.078;11.650;2022-12-07T09:15:17;4.63;;;2.83;;
14611;SDS011;7392;52.078;11.650;2022-12-07T09:17:45;4.63;;;3.27;;
14611;SDS011;7392;52.078;11.650;2022-12-07T09:20:13;6.17;;;3.33;;
14611;SDS011;7392;52.078;11.650;2022-12-07T09:22:41;3.40;;;2.87;;
14611;SDS011;7392;52.078;11.650;2022-12-07T09:25:08;5.23;;;2.90;;
14611;SDS011;7392;52.078;11.650;2022-12-07T09:27:38;3.73;;;2.50;;
14611;SDS011;7392;52.078;11.650;2022-12-07T09:30:06;4.77;;;2.70;;
14611;SDS011;7392;52.078;11.650;2022-12-07T09:32:35;5.10;;;2.60;;
14611;SDS011;7392;52.078;11.650;2022-12-07T09:35:03;3.03;;;2.30;;
14611;SDS011;7392;52.078;11.650;2022-12-07T09:37:31;3.57;;;2.50;;
14611;SDS011;7392;52.078;11.650;2022-12-07T09:40:01;3.10;;;2.07;;
14611;SDS011;7392;52.078;11.650;2022-12-07T09:42:32;2.77;;;2.00;;
14611;SDS011;7392;52.078;11.650;2022-12-07T09:45:04;3.80;;;2.33;;
14611;SDS011;7392;52.078;11.650;2022-12-07T09:47:33;4.17;;;2.80;;
14611;SDS011;7392;52.078;11.650;2022-12-07T09:50:03;4.40;;;2.60;;
14611;SDS011;7392;52.078;11.650;2022-12-07T09:52:34;4.90;;;3.13;;
14611;SDS011;7392;52.078;11.650;2022-12-07T09:55:08;5.50;;;3.47;;
14611;SDS011;7392;52.078;11.650;2022-12-07T09:57:38;5.53;;;4.27;;
14611;SDS011;7392;52.078;11.650;2022-12-07T10:00:10;6.87;;;4.70;;
14611;SDS011;7392;52.078;11.650;2022-12-07T10:02:41;14.33;;;7.00;;
14611;SDS011;7392;52.078;11.650;2022-12-07T10:05:12;5.80;;;5.03;;
14611;SDS011;7392;52.078;11.650;2022-12-07T10:07:49;5.87;;;4.97;;
14611;SDS011;7392;52.078;11.650;2022-12-07T10:10:18;7.37;;;5.70;;
14611;SDS011;7392;52.078;11.650;2022-12-07T10:12:55;9.07;;;6.63;;
14611;SDS011;7392;52.078;11.650;2022-12-07T10:18:19;8.90;;;6.83;;
14611;SDS011;7392;52.078;11.650;2022-12-07T10:20:59;7.87;;;6.57;;
14611;SDS011;7392;52.078;11.650;2022-12-07T10:23:36;9.63;;;6.73;;
14611;SDS011;7392;52.078;11.650;2022-12-07T10:26:25;9.00;;;6.30;;
14611;SDS011;7392;52.078;11.650;2022-12-07T10:28:55;8.77;;;6.10;;
14611;SDS011;7392;52.078;11.650;2022-12-07T10:31:26;7.30;;;5.70;;
14611;SDS011;7392;52.078;11.650;2022-12-07T10:33:56;9.03;;;6.90;;
14611;SDS011;7392;52.078;11.650;2022-12-07T10:36:27;10.07;;;7.33;;
14611;SDS011;7392;52.078;11.650;2022-12-07T10:39:03;11.77;;;7.50;;
14611;SDS011;7392;52.078;11.650;2022-12-07T10:41:43;8.70;;;6.87;;
14611;SDS011;7392;52.078;11.650;2022-12-07T10:44:20;7.93;;;6.30;;
14611;SDS011;7392;52.078;11.650;2022-12-07T10:47:01;5.73;;;5.13;;
14611;SDS011;7392;52.078;11.650;2022-12-07T10:52:58;8.00;;;4.57;;
14611;SDS011;7392;52.078;11.650;2022-12-07T10:55:55;9.13;;;4.97;;
14611;SDS011;7392;52.078;11.650;2022-12-07T10:58:37;5.17;;;4.10;;
14611;SDS011;7392;52.078;11.650;2022-12-07T11:01:21;7.77;;;5.17;;
14611;SDS011;7392;52.078;11.650;2022-12-07T11:03:55;10.17;;;6.10;;
14611;SDS011;7392;52.078;11.650;2022-12-07T11:06:39;10.60;;;6.77;;
14611;SDS011;7392;52.078;11.650;2022-12-07T11:09:21;7.83;;;6.73;;
14611;SDS011;7392;52.078;11.650;2022-12-07T11:12:36;6.97;;;6.27;;
14611;SDS011;7392;52.078;11.650;2022-12-07T11:15:17;14.00;;;7.43;;
14611;SDS011;7392;52.078;11.650;2022-12-07T11:17:51;10.17;;;6.70;;
14611;SDS011;7392;52.078;11.650;2022-12-07T11:20:29;9.07;;;6.97;;
14611;SDS011;7392;52.078;11.650;2022-12-07T11:23:07;8.17;;;5.70;;
14611;SDS011;7392;52.078;11.650;2022-12-07T11:25:48;8.20;;;5.47;;
14611;SDS011;7392;52.078;11.650;2022-12-07T11:28:28;13.30;;;6.50;;
14611;SDS011;7392;52.078;11.650;2022-12-07T11:31:09;9.33;;;6.03;;
14611;SDS011;7392;52.078;11.650;2022-12-07T11:33:44;11.83;;;6.73;;
14611;SDS011;7392;52.078;11.650;2022-12-07T11:36:17;8.60;;;6.27;;
14611;SDS011;7392;52.078;11.650;2022-12-07T11:39:00;6.67;;;5.67;;
14611;SDS011;7392;52.078;11.650;2022-12-07T11:41:31;6.67;;;5.23;;
14611;SDS011;7392;52.078;11.650;2022-12-07T11:44:05;9.20;;;6.07;;
14611;SDS011;7392;52.078;11.650;2022-12-07T11:46:43;8.60;;;6.37;;
14611;SDS011;7392;52.078;11.650;2022-12-07T11:49:15;6.60;;;5.47;;
14611;SDS011;7392;52.078;11.650;2022-12-07T11:51:49;6.73;;;5.40;;
14611;SDS011;7392;52.078;11.650;2022-12-07T11:54:23;8.17;;;5.70;;
14611;SDS011;7392;52.078;11.650;2022-12-07T11:56:56;7.17;;;4.57;;
14611;SDS011;7392;52.078;11.650;2022-12-07T11:59:31;8.03;;;4.67;;
14611;SDS011;7392;52.078;11.650;2022-12-07T12:02:09;9.20;;;4.80;;
14611;SDS011;7392;52.078;11.650;2022-12-07T12:04:45;9.80;;;5.50;;
14611;SDS011;7392;52.078;11.650;2022-12-07T12:07:22;7.67;;;4.90;;
14611;SDS011;7392;52.078;11.650;2022-12-07T12:10:16;5.10;;;4.00;;
14611;SDS011;7392;52.078;11.650;2022-12-07T12:16:15;7.07;;;4.70;;
14611;SDS011;7392;52.078;11.650;2022-12-07T12:19:03;9.20;;;4.70;;
14611;SDS011;7392;52.078;11.650;2022-12-07T12:21:43;7.13;;;4.17;;
14611;SDS011;7392;52.078;11.650;2022-12-07T12:24:18;5.20;;;3.97;;
14611;SDS011;7392;52.078;11.650;2022-12-07T12:26:52;5.17;;;3.67;;
14611;SDS011;7392;52.078;11.650;2022-12-07T12:29:27;5.17;;;3.50;;
14611;SDS011;7392;52.078;11.650;2022-12-07T12:32:06;4.67;;;3.77;;
14611;SDS011;7392;52.078;11.650;2022-12-07T12:34:41;6.13;;;4.10;;
14611;SDS011;7392;52.078;11.650;2022-12-07T12:37:43;7.43;;;4.10;;
14611;SDS011;7392;52.078;11.650;2022-12-07T12:49:34;5.03;;;4.40;;
14611;SDS011;7392;52.078;11.650;2022-12-07T12:55:19;7.33;;;5.10;;
14611;SDS011;7392;52.078;11.650;2022-12-07T13:10:37;5.43;;;3.93;;
14611;SDS011;7392;52.078;11.650;2022-12-07T13:25:33;5.53;;;3.30;;
14611;SDS011;7392;52.078;11.650;2022-12-07T13:28:13;3.73;;;2.40;;
14611;SDS011;7392;52.078;11.650;2022-12-07T13:30:57;4.67;;;2.30;;
14611;SDS011;7392;52.078;11.650;2022-12-07T13:40:31;3.13;;;1.90;;
14611;SDS011;7392;52.078;11.650;2022-12-07T13:43:26;3.33;;;1.73;;
14611;SDS011;7392;52.078;11.650;2022-12-07T13:49:27;2.30;;;1.80;;
14611;SDS011;7392;52.078;11.650;2022-12-07T13:52:47;2.40;;;1.93;;
14611;SDS011;7392;52.078;11.650;2022-12-07T13:58:51;4.33;;;2.43;;
14611;SDS011;7392;52.078;11.650;2022-12-07T14:01:30;3.00;;;2.70;;
14611;SDS011;7392;52.078;11.650;2022-12-07T14:04:19;3.63;;;2.37;;
14611;SDS011;7392;52.078;11.650;2022-12-07T14:09:58;4.47;;;2.37;;
14611;SDS011;7392;52.078;11.650;2022-12-07T14:12:27;2.93;;;2.53;;
14611;SDS011;7392;52.078;11.650;2022-12-07T14:14:57;3.13;;;2.20;;
14611;SDS011;7392;52.078;11.650;2022-12-07T14:17:27;2.57;;;1.93;;
14611;SDS011;7392;52.078;11.650;2022-12-07T14:19:56;3.33;;;2.07;;
14611;SDS011;7392;52.078;11.650;2022-12-07T14:22:30;3.63;;;1.77;;
14611;SDS011;7392;52.078;11.650;2022-12-07T14:25:13;6.00;;;1.93;;
14611;SDS011;7392;52.078;11.650;2022-12-07T14:27:48;4.20;;;1.67;;
14611;SDS011;7392;52.078;11.650;2022-12-07T14:30:23;2.77;;;1.20;;
14611;SDS011;7392;52.078;11.650;2022-12-07T14:32:53;2.10;;;1.37;;
14611;SDS011;7392;52.078;11.650;2022-12-07T14:35:24;3.47;;;1.60;;
14611;SDS011;7392;52.078;11.650;2022-12-07T14:37:52;3.70;;;1.77;;
14611;SDS011;7392;52.078;11.650;2022-12-07T14:40:22;6.17;;;1.90;;
14611;SDS011;7392;52.078;11.650;2022-12-07T14:42:53;3.67;;;1.63;;
14611;SDS011;7392;52.078;11.650;2022-12-07T14:45:24;4.10;;;1.97;;
14611;SDS011;7392;52.078;11.650;2022-12-07T14:47:52;8.90;;;3.47;;
14611;SDS011;7392;52.078;11.650;2022-12-07T14:50:40;7.27;;;3.47;;
14611;SDS011;7392;52.078;11.650;2022-12-07T14:53:34;6.03;;;2.63;;
14611;SDS011;7392;52.078;11.650;2022-12-07T14:56:06;3.20;;;2.03;;
14611;SDS011;7392;52.078;11.650;2022-12-07T14:58:34;5.50;;;2.13;;
14611;SDS011;7392;52.078;11.650;2022-12-07T15:01:02;3.17;;;1.47;;
14611;SDS011;7392;52.078;11.650;2022-12-07T15:03:31;4.97;;;1.93;;
14611;SDS011;7392;52.078;11.650;2022-12-07T15:06:01;3.73;;;1.90;;
14611;SDS011;7392;52.078;11.650;2022-12-07T15:08:33;2.37;;;1.73;;
14611;SDS011;7392;52.078;11.650;2022-12-07T15:11:01;3.87;;;1.73;;
14611;SDS011;7392;52.078;11.650;2022-12-07T15:13:30;3.10;;;1.90;;
14611;SDS011;7392;52.078;11.650;2022-12-07T15:16:16;3.50;;;1.63;;
14611;SDS011;7392;52.078;11.650;2022-12-07T15:18:47;2.70;;;1.60;;
14611;SDS011;7392;52.078;11.650;2022-12-07T15:21:35;4.63;;;2.10;;
14611;SDS011;7392;52.078;11.650;2022-12-07T15:24:03;5.13;;;2.20;;
14611;SDS011;7392;52.078;11.650;2022-12-07T15:26:31;4.17;;;2.37;;
14611;SDS011;7392;52.078;11.650;2022-12-07T15:29:00;2.50;;;1.70;;
14611;SDS011;7392;52.078;11.650;2022-12-07T15:31:28;4.03;;;1.97;;
14611;SDS011;7392;52.078;11.650;2022-12-07T15:34:16;6.97;;;2.40;;
14611;SDS011;7392;52.078;11.650;2022-12-07T15:36:44;8.37;;;3.03;;
14611;SDS011;7392;52.078;11.650;2022-12-07T15:39:12;5.00;;;2.90;;
14611;SDS011;7392;52.078;11.650;2022-12-07T15:41:41;5.97;;;3.30;;
14611;SDS011;7392;52.078;11.650;2022-12-07T15:44:11;4.77;;;2.70;;
14611;SDS011;7392;52.078;11.650;2022-12-07T15:46:57;5.50;;;3.07;;
14611;SDS011;7392;52.078;11.650;2022-12-07T15:49:25;5.20;;;2.93;;
14611;SDS011;7392;52.078;11.650;2022-12-07T15:51:54;4.50;;;3.23;;
14611;SDS011;7392;52.078;11.650;2022-12-07T15:54:24;4.23;;;3.07;;
14611;SDS011;7392;52.078;11.650;2022-12-07T15:56:53;3.70;;;2.83;;
14611;SDS011;7392;52.078;11.650;2022-12-07T15:59:23;6.73;;;3.77;;
14611;SDS011;7392;52.078;11.650;2022-12-07T16:01:53;4.20;;;3.60;;
14611;SDS011;7392;52.078;11.650;2022-12-07T16:04:21;6.67;;;4.10;;
14611;SDS011;7392;52.078;11.650;2022-12-07T16:06:49;5.83;;;3.73;;
14611;SDS011;7392;52.078;11.650;2022-12-07T16:09:18;7.03;;;3.83;;
14611;SDS011;7392;52.078;11.650;2022-12-07T16:11:47;7.07;;;3.63;;
14611;SDS011;7392;52.078;11.650;2022-12-07T16:14:16;5.47;;;3.83;;